Time;durP1;ratioP1;P1;durP2;ratioP2;P2;SDS_P1;SDS_P2;PMS_P1;PMS_P2;Temp;Humidity;BMP_temperature;BMP_pressure;BME280_temperature;BME280_humidity;BME280_pressure;Samples;Min_cycle;Max_cycle;Signal;HPM_P1;HPM_P2
2021/01/08 00:00:07;;;;;;;11.27;6.50;;;;;;;;;;5009856;28;20060;-86
2021/01/08 00:02:32;;;;;;;12.87;6.63;;;;;;;;;;5008940;28;20025;-87
2021/01/08 00:04:57;;;;;;;12.97;7.80;;;;;;;;;;5009098;28;20026;-86
2021/01/08 00:07:22;;;;;;;11.63;7.63;;;;;;;;;;5010765;28;20068;-86
2021/01/08 00:09:48;;;;;;;13.93;8.40;;;;;;;;;;5010198;28;20101;-87
2021/01/08 00:12:13;;;;;;;13.87;6.80;;;;;;;;;;5010504;28;20021;-86
2021/01/08 00:14:38;;;;;;;14.13;8.23;;;;;;;;;;5008359;28;20022;-86
2021/01/08 00:17:03;;;;;;;13.40;7.60;;;;;;;;;;5009901;28;20488;-86
2021/01/08 00:19:29;;;;;;;15.63;7.97;;;;;;;;;;5010838;28;20492;-87
2021/01/08 00:21:54;;;;;;;14.63;8.00;;;;;;;;;;5008668;28;20029;-86
2021/01/08 00:24:19;;;;;;;13.57;7.67;;;;;;;;;;5009439;28;20091;-87
2021/01/08 00:26:47;;;;;;;12.07;6.50;;;;;;;;;;5007771;28;20599;-86
2021/01/08 00:29:14;;;;;;;12.03;7.60;;;;;;;;;;5008536;28;20026;-86
2021/01/08 00:31:40;;;;;;;15.00;7.27;;;;;;;;;;5005396;28;20033;-86
2021/01/08 00:34:06;;;;;;;11.80;7.10;;;;;;;;;;5009042;28;20024;-86
2021/01/08 00:36:31;;;;;;;13.20;7.00;;;;;;;;;;5009009;28;20531;-86
2021/01/08 00:38:56;;;;;;;13.23;8.20;;;;;;;;;;5010495;28;20022;-86
2021/01/08 00:41:33;;;;;;;10.93;5.90;;;;;;;;;;5009727;28;20053;-86
2021/01/08 00:43:58;;;;;;;14.03;7.10;;;;;;;;;;5023070;28;20125;-86
2021/01/08 00:46:30;;;;;;;12.70;7.10;;;;;;;;;;5009224;28;20108;-87
2021/01/08 00:48:56;;;;;;;12.98;7.30;;;;;;;;;;5007404;28;20036;-86
2021/01/08 00:51:22;;;;;;;11.03;7.17;;;;;;;;;;5009809;28;20387;-86
2021/01/08 00:53:47;;;;;;;11.43;6.80;;;;;;;;;;5009374;28;20460;-86
2021/01/08 00:56:16;;;;;;;14.47;7.97;;;;;;;;;;5009324;28;20014;-87
2021/01/08 00:58:41;;;;;;;13.50;8.00;;;;;;;;;;5008158;28;20034;-87
2021/01/08 01:01:06;;;;;;;13.33;7.80;;;;;;;;;;5008398;28;20465;-86
2021/01/08 01:03:32;;;;;;;14.17;8.20;;;;;;;;;;5009673;28;20136;-87
2021/01/08 01:05:57;;;;;;;11.10;7.77;;;;;;;;;;5008847;28;20076;-87
2021/01/08 01:08:22;;;;;;;12.90;7.30;;;;;;;;;;5008752;28;20044;-87
2021/01/08 01:10:47;;;;;;;11.10;6.77;;;;;;;;;;5009715;28;20152;-87
2021/01/08 01:13:12;;;;;;;15.00;7.63;;;;;;;;;;5009657;28;20017;-86
2021/01/08 01:15:38;;;;;;;12.30;7.20;;;;;;;;;;5007958;28;20094;-87
2021/01/08 01:18:03;;;;;;;12.93;7.27;;;;;;;;;;5009119;28;20111;-87
2021/01/08 01:20:28;;;;;;;13.50;7.20;;;;;;;;;;5008063;28;20020;-87
2021/01/08 01:22:53;;;;;;;10.60;6.87;;;;;;;;;;5010065;28;20076;-86
2021/01/08 01:25:18;;;;;;;11.30;6.83;;;;;;;;;;5008618;28;20140;-87
2021/01/08 01:27:44;;;;;;;14.30;6.67;;;;;;;;;;5009935;28;20399;-86
2021/01/08 01:30:09;;;;;;;12.37;7.10;;;;;;;;;;5008920;28;20460;-86
2021/01/08 01:32:34;;;;;;;15.20;7.47;;;;;;;;;;5008536;28;20032;-87
2021/01/08 01:34:59;;;;;;;19.30;8.33;;;;;;;;;;5008623;28;20028;-86
2021/01/08 01:37:25;;;;;;;13.77;7.13;;;;;;;;;;5010130;28;20021;-86
2021/01/08 01:39:50;;;;;;;11.57;7.37;;;;;;;;;;5008420;28;20109;-86
2021/01/08 01:42:15;;;;;;;15.20;7.80;;;;;;;;;;5006646;28;20073;-86
2021/01/08 01:44:40;;;;;;;16.30;7.87;;;;;;;;;;5008218;28;20022;-86
2021/01/08 01:47:05;;;;;;;13.70;7.63;;;;;;;;;;5008964;28;20018;-86
2021/01/08 01:49:31;;;;;;;14.83;7.57;;;;;;;;;;5008367;28;20018;-86
2021/01/08 01:51:58;;;;;;;16.80;8.33;;;;;;;;;;5007606;28;20041;-86
2021/01/08 01:54:23;;;;;;;17.10;8.07;;;;;;;;;;5007978;28;20014;-86
2021/01/08 01:56:49;;;;;;;18.40;9.80;;;;;;;;;;5010153;28;20014;-86
2021/01/08 01:59:14;;;;;;;16.73;8.60;;;;;;;;;;5010485;28;20109;-86
2021/01/08 02:01:39;;;;;;;15.53;8.33;;;;;;;;;;5019459;28;20379;-86
2021/01/08 02:04:04;;;;;;;16.70;8.90;;;;;;;;;;5035362;28;20029;-87
2021/01/08 02:06:32;;;;;;;16.57;9.53;;;;;;;;;;5011709;28;20130;-86
2021/01/08 02:08:58;;;;;;;19.07;8.63;;;;;;;;;;5011305;28;20104;-87
2021/01/08 02:11:26;;;;;;;18.87;9.60;;;;;;;;;;5011632;28;20018;-86
2021/01/08 02:14:02;;;;;;;17.30;8.10;;;;;;;;;;5012805;28;20083;-87
2021/01/08 02:16:29;;;;;;;16.63;7.97;;;;;;;;;;5009986;28;20372;-86
2021/01/08 02:18:54;;;;;;;18.67;8.93;;;;;;;;;;5020142;28;20375;-87
2021/01/08 02:21:22;;;;;;;16.70;8.90;;;;;;;;;;5033395;28;20018;-86
2021/01/08 02:23:47;;;;;;;18.33;8.40;;;;;;;;;;5012579;28;20022;-86
2021/01/08 02:26:13;;;;;;;19.07;9.33;;;;;;;;;;5012071;28;20073;-86
2021/01/08 02:28:38;;;;;;;18.27;8.63;;;;;;;;;;5010663;28;20104;-86
2021/01/08 02:31:04;;;;;;;16.73;8.60;;;;;;;;;;5010423;28;20029;-87
2021/01/08 02:33:29;;;;;;;15.67;9.03;;;;;;;;;;5010806;28;20022;-86
2021/01/08 02:35:58;;;;;;;18.03;9.73;;;;;;;;;;5009493;28;20029;-87
2021/01/08 02:38:24;;;;;;;14.93;8.67;;;;;;;;;;5012139;28;20026;-86
2021/01/08 02:40:51;;;;;;;20.10;9.47;;;;;;;;;;5011013;28;20018;-87
2021/01/08 02:43:22;;;;;;;17.67;8.97;;;;;;;;;;5011563;28;20025;-86
2021/01/08 02:45:47;;;;;;;16.90;9.03;;;;;;;;;;5011908;28;20045;-87
2021/01/08 02:48:13;;;;;;;20.53;9.57;;;;;;;;;;5011772;28;20357;-87
2021/01/08 02:50:38;;;;;;;16.27;8.47;;;;;;;;;;5010400;28;20020;-86
2021/01/08 02:53:04;;;;;;;18.50;8.60;;;;;;;;;;5009534;28;20747;-86
2021/01/08 02:55:30;;;;;;;18.90;9.50;;;;;;;;;;5011696;28;20025;-86
2021/01/08 02:57:58;;;;;;;18.30;8.63;;;;;;;;;;5010398;28;20146;-86
2021/01/08 03:00:23;;;;;;;16.17;8.47;;;;;;;;;;5010937;28;20049;-86
2021/01/08 03:02:48;;;;;;;15.33;9.80;;;;;;;;;;5010259;28;20006;-87
2021/01/08 03:05:13;;;;;;;15.73;8.90;;;;;;;;;;5003465;28;20464;-86
2021/01/08 03:07:40;;;;;;;20.13;9.13;;;;;;;;;;5009907;28;20022;-87
2021/01/08 03:10:05;;;;;;;18.13;8.63;;;;;;;;;;5009186;28;20021;-86
2021/01/08 03:12:31;;;;;;;18.50;8.13;;;;;;;;;;5009373;28;20384;-87
2021/01/08 03:14:57;;;;;;;17.53;9.70;;;;;;;;;;5009341;28;20132;-86
2021/01/08 03:17:22;;;;;;;19.53;8.70;;;;;;;;;;5009514;28;20488;-86
2021/01/08 03:19:47;;;;;;;19.70;8.20;;;;;;;;;;5010587;28;20030;-87
2021/01/08 03:22:13;;;;;;;16.77;8.90;;;;;;;;;;5011819;28;20466;-86
2021/01/08 03:24:38;;;;;;;18.23;9.30;;;;;;;;;;5010432;28;20030;-87
2021/01/08 03:27:03;;;;;;;16.50;8.10;;;;;;;;;;5010028;28;20029;-86
2021/01/08 03:29:28;;;;;;;17.30;8.63;;;;;;;;;;5008988;28;20460;-86
2021/01/08 03:31:53;;;;;;;20.13;8.87;;;;;;;;;;5008943;28;20084;-86
2021/01/08 03:34:18;;;;;;;18.10;9.40;;;;;;;;;;5009892;28;20053;-87
2021/01/08 03:36:44;;;;;;;14.20;8.03;;;;;;;;;;5024335;28;20056;-86
2021/01/08 03:39:09;;;;;;;16.57;9.50;;;;;;;;;;5009430;28;20025;-86
2021/01/08 03:41:34;;;;;;;17.60;8.93;;;;;;;;;;5010131;28;20031;-86
2021/01/08 03:43:59;;;;;;;23.60;10.47;;;;;;;;;;5010735;28;20030;-87
2021/01/08 03:46:24;;;;;;;17.60;10.23;;;;;;;;;;5009697;28;20183;-87
2021/01/08 03:48:50;;;;;;;19.87;9.67;;;;;;;;;;5009562;28;20392;-87
2021/01/08 03:51:15;;;;;;;18.30;9.00;;;;;;;;;;5009133;28;20604;-86
2021/01/08 03:53:40;;;;;;;18.57;9.17;;;;;;;;;;5003437;28;20165;-87
2021/01/08 03:56:05;;;;;;;23.03;9.00;;;;;;;;;;5009865;28;20017;-86
2021/01/08 03:58:30;;;;;;;21.30;9.13;;;;;;;;;;5009090;28;20365;-86
2021/01/08 04:00:56;;;;;;;15.80;7.93;;;;;;;;;;5008654;28;20428;-87
2021/01/08 04:03:21;;;;;;;19.07;8.80;;;;;;;;;;5010533;28;20091;-87
2021/01/08 04:05:46;;;;;;;19.70;8.77;;;;;;;;;;5010556;28;20053;-86
2021/01/08 04:08:12;;;;;;;23.40;8.83;;;;;;;;;;5010879;28;20026;-86
2021/01/08 04:10:37;;;;;;;16.20;9.07;;;;;;;;;;5009091;28;20488;-86
2021/01/08 04:13:02;;;;;;;17.87;8.03;;;;;;;;;;5009121;28;20502;-87
2021/01/08 04:15:27;;;;;;;18.53;9.40;;;;;;;;;;5008475;28;20025;-87
2021/01/08 04:17:52;;;;;;;17.83;8.13;;;;;;;;;;5008856;28;20022;-86
2021/01/08 04:20:18;;;;;;;15.33;7.97;;;;;;;;;;5008920;28;20104;-86
2021/01/08 04:22:43;;;;;;;13.40;6.90;;;;;;;;;;5009382;28;20117;-86
2021/01/08 04:25:08;;;;;;;18.50;8.37;;;;;;;;;;5010267;28;20022;-86
2021/01/08 04:27:33;;;;;;;19.20;7.83;;;;;;;;;;5009229;28;20022;-86
2021/01/08 04:29:59;;;;;;;16.80;8.60;;;;;;;;;;5008862;28;20556;-86
2021/01/08 04:32:24;;;;;;;13.20;7.67;;;;;;;;;;5005011;28;20057;-86
2021/01/08 04:34:49;;;;;;;17.57;8.27;;;;;;;;;;5009969;28;20045;-86
2021/01/08 04:37:14;;;;;;;15.97;8.43;;;;;;;;;;5008656;28;20048;-86
2021/01/08 04:39:39;;;;;;;18.23;9.13;;;;;;;;;;5010514;28;20390;-86
2021/01/08 04:42:05;;;;;;;16.30;7.90;;;;;;;;;;5010410;28;20060;-86
2021/01/08 04:44:30;;;;;;;17.57;7.47;;;;;;;;;;5009740;28;20022;-86
2021/01/08 04:46:55;;;;;;;19.67;9.40;;;;;;;;;;5007781;28;20520;-86
2021/01/08 04:49:21;;;;;;;14.73;7.57;;;;;;;;;;5009980;28;20018;-86
2021/01/08 04:51:46;;;;;;;21.17;7.43;;;;;;;;;;5008684;28;20469;-86
2021/01/08 04:54:11;;;;;;;20.37;8.30;;;;;;;;;;5008883;28;20025;-86
2021/01/08 04:56:38;;;;;;;17.00;7.60;;;;;;;;;;5008778;28;20476;-86
2021/01/08 04:59:03;;;;;;;17.03;7.40;;;;;;;;;;5008127;28;20030;-86
2021/01/08 05:01:29;;;;;;;18.13;7.97;;;;;;;;;;5007929;28;20036;-86
2021/01/08 05:03:54;;;;;;;15.47;7.00;;;;;;;;;;5009725;28;20354;-86
2021/01/08 05:06:19;;;;;;;18.43;7.57;;;;;;;;;;5010326;28;20076;-86
2021/01/08 05:08:44;;;;;;;14.53;7.20;;;;;;;;;;5008765;28;20559;-86
2021/01/08 05:11:19;;;;;;;14.27;7.77;;;;;;;;;;5009697;28;20117;-86
2021/01/08 05:13:50;;;;;;;17.30;8.57;;;;;;;;;;5008310;28;20021;-86
2021/01/08 05:16:15;;;;;;;15.97;7.53;;;;;;;;;;5008737;28;20014;-86
2021/01/08 05:18:40;;;;;;;15.73;9.03;;;;;;;;;;5008748;28;20018;-86
2021/01/08 05:21:05;;;;;;;19.03;7.53;;;;;;;;;;5008637;28;20515;-86
2021/01/08 05:23:31;;;;;;;17.20;7.33;;;;;;;;;;5008577;28;20025;-87
2021/01/08 05:25:56;;;;;;;13.10;7.03;;;;;;;;;;5009289;28;20042;-87
2021/01/08 05:28:21;;;;;;;20.57;8.60;;;;;;;;;;5008045;28;20431;-87
2021/01/08 05:30:47;;;;;;;14.37;7.50;;;;;;;;;;5009441;28;20018;-86
2021/01/08 05:33:14;;;;;;;17.90;8.80;;;;;;;;;;5010002;28;20433;-87
2021/01/08 05:35:39;;;;;;;17.57;8.80;;;;;;;;;;5012129;28;20109;-86
2021/01/08 05:38:05;;;;;;;14.83;8.20;;;;;;;;;;5013665;28;20104;-87
2021/01/08 05:40:31;;;;;;;14.77;7.93;;;;;;;;;;5013203;28;20121;-86
2021/01/08 05:42:57;;;;;;;15.97;7.70;;;;;;;;;;5013500;28;20104;-87
2021/01/08 05:45:22;;;;;;;13.77;7.90;;;;;;;;;;5011345;28;20026;-87
2021/01/08 05:47:49;;;;;;;14.53;8.73;;;;;;;;;;5012222;28;20021;-87
2021/01/08 05:50:15;;;;;;;17.40;8.00;;;;;;;;;;5011099;28;20302;-86
2021/01/08 05:52:41;;;;;;;14.60;7.07;;;;;;;;;;4999672;28;20068;-86
2021/01/08 05:55:10;;;;;;;13.53;8.80;;;;;;;;;;5013030;28;20018;-86
2021/01/08 05:57:36;;;;;;;15.80;8.17;;;;;;;;;;5011966;28;20089;-87
2021/01/08 06:00:02;;;;;;;16.63;8.47;;;;;;;;;;5010617;28;20081;-87
2021/01/08 06:02:27;;;;;;;18.40;8.10;;;;;;;;;;5010897;28;20018;-87
2021/01/08 06:04:52;;;;;;;13.87;7.77;;;;;;;;;;5011649;28;20179;-87
2021/01/08 06:07:18;;;;;;;18.90;8.83;;;;;;;;;;5011684;28;20116;-87
2021/01/08 06:09:48;;;;;;;18.70;9.13;;;;;;;;;;5009481;28;20431;-86
2021/01/08 06:12:13;;;;;;;20.43;9.13;;;;;;;;;;5011612;28;20184;-87
2021/01/08 06:14:38;;;;;;;19.70;8.67;;;;;;;;;;5011542;28;20112;-87
2021/01/08 06:17:04;;;;;;;17.80;9.63;;;;;;;;;;5010668;28;20025;-86
2021/01/08 06:19:29;;;;;;;19.53;8.83;;;;;;;;;;5011006;28;20383;-87
2021/01/08 06:21:56;;;;;;;18.23;8.07;;;;;;;;;;5011093;28;20022;-87
2021/01/08 06:24:21;;;;;;;18.47;9.83;;;;;;;;;;5011732;28;20096;-86
2021/01/08 06:26:48;;;;;;;21.63;10.20;;;;;;;;;;5000900;28;20081;-86
2021/01/08 06:29:23;;;;;;;16.17;9.53;;;;;;;;;;5012487;28;20029;-86
2021/01/08 06:31:49;;;;;;;19.60;10.57;;;;;;;;;;5010262;28;20510;-86
2021/01/08 06:34:28;;;;;;;22.33;9.93;;;;;;;;;;5011496;28;20014;-86
2021/01/08 06:36:59;;;;;;;18.57;9.40;;;;;;;;;;5010849;28;20303;-87
2021/01/08 06:39:25;;;;;;;18.90;9.90;;;;;;;;;;5012171;28;20021;-87
2021/01/08 06:41:52;;;;;;;19.83;9.10;;;;;;;;;;5011000;28;20099;-87
2021/01/08 06:44:23;;;;;;;17.93;10.13;;;;;;;;;;5010267;28;20500;-86
2021/01/08 06:46:50;;;;;;;21.73;10.20;;;;;;;;;;5009998;28;20021;-86
2021/01/08 06:49:18;;;;;;;20.60;9.57;;;;;;;;;;5010876;28;20037;-86
2021/01/08 06:51:43;;;;;;;22.47;10.27;;;;;;;;;;5012232;28;20041;-87
2021/01/08 06:54:12;;;;;;;23.73;11.70;;;;;;;;;;5010505;28;20120;-87
2021/01/08 06:56:39;;;;;;;19.23;9.30;;;;;;;;;;5010207;28;20025;-86
2021/01/08 06:59:05;;;;;;;19.27;11.20;;;;;;;;;;5010393;28;20025;-87
2021/01/08 07:01:40;;;;;;;23.17;10.40;;;;;;;;;;5010555;28;20113;-87
2021/01/08 07:04:06;;;;;;;23.00;10.73;;;;;;;;;;5010643;28;20025;-87
2021/01/08 07:06:35;;;;;;;21.03;11.67;;;;;;;;;;5010683;28;20030;-86
2021/01/08 07:09:02;;;;;;;19.20;10.67;;;;;;;;;;5011785;28;20021;-86
2021/01/08 07:11:27;;;;;;;22.03;11.30;;;;;;;;;;5001549;28;20022;-86
2021/01/08 07:14:05;;;;;;;26.87;12.90;;;;;;;;;;5010224;28;20022;-86
2021/01/08 07:16:30;;;;;;;26.47;14.30;;;;;;;;;;4998128;28;20021;-86
2021/01/08 07:19:08;;;;;;;22.53;11.67;;;;;;;;;;5010160;28;20018;-86
2021/01/08 07:21:33;;;;;;;23.03;11.73;;;;;;;;;;5010066;28;20022;-86
2021/01/08 07:23:59;;;;;;;29.63;13.70;;;;;;;;;;5011927;28;20053;-86
2021/01/08 07:26:28;;;;;;;22.00;11.77;;;;;;;;;;5007452;28;20476;-86
2021/01/08 07:28:53;;;;;;;25.07;11.73;;;;;;;;;;5005643;28;20045;-86
2021/01/08 07:31:26;;;;;;;27.27;13.60;;;;;;;;;;5007168;28;20042;-86
2021/01/08 07:33:51;;;;;;;24.80;13.90;;;;;;;;;;5008788;28;20021;-86
2021/01/08 07:36:22;;;;;;;22.07;10.97;;;;;;;;;;5008386;28;20449;-86
2021/01/08 07:38:48;;;;;;;28.77;13.20;;;;;;;;;;5009872;28;20084;-86
2021/01/08 07:41:27;;;;;;;29.63;12.37;;;;;;;;;;5008951;28;20030;-86
2021/01/08 07:43:52;;;;;;;26.20;12.47;;;;;;;;;;5010647;28;20383;-87
2021/01/08 07:46:25;;;;;;;24.00;12.40;;;;;;;;;;5009594;28;20099;-86
2021/01/08 07:48:50;;;;;;;28.92;12.38;;;;;;;;;;5011615;28;20064;-86
2021/01/08 07:51:15;;;;;;;26.73;13.60;;;;;;;;;;5008633;28;20034;-86
2021/01/08 07:53:41;;;;;;;33.40;13.93;;;;;;;;;;5010274;28;20049;-86
2021/01/08 07:56:06;;;;;;;25.70;12.73;;;;;;;;;;5010355;28;20514;-87
2021/01/08 07:58:31;;;;;;;28.47;12.37;;;;;;;;;;5008241;28;20048;-87
2021/01/08 08:00:58;;;;;;;28.33;13.30;;;;;;;;;;5008532;28;20034;-86
2021/01/08 08:03:23;;;;;;;26.80;13.07;;;;;;;;;;4998591;28;20048;-86
2021/01/08 08:05:51;;;;;;;22.67;13.10;;;;;;;;;;4997705;28;20468;-86
2021/01/08 08:08:16;;;;;;;23.03;11.60;;;;;;;;;;4998944;28;20109;-87
2021/01/08 08:10:41;;;;;;;25.40;12.40;;;;;;;;;;5020940;28;20436;-87
2021/01/08 08:13:06;;;;;;;24.80;14.13;;;;;;;;;;5024235;28;20029;-87
2021/01/08 08:15:31;;;;;;;27.23;11.73;;;;;;;;;;5014939;28;20128;-86
2021/01/08 08:17:57;;;;;;;25.90;12.80;;;;;;;;;;5002996;28;20022;-86
2021/01/08 08:20:28;;;;;;;25.93;12.83;;;;;;;;;;4996177;28;20018;-86
2021/01/08 08:22:53;;;;;;;26.20;13.73;;;;;;;;;;5014190;28;20603;-86
2021/01/08 08:25:26;;;;;;;26.63;11.90;;;;;;;;;;5007678;28;20113;-86
2021/01/08 08:27:52;;;;;;;28.13;13.63;;;;;;;;;;5007856;28;20357;-86
2021/01/08 08:30:18;;;;;;;29.40;12.63;;;;;;;;;;5018562;28;20113;-86
2021/01/08 08:32:43;;;;;;;25.63;12.67;;;;;;;;;;5013189;28;20112;-86
2021/01/08 08:35:09;;;;;;;27.97;12.70;;;;;;;;;;5007078;28;20106;-86
2021/01/08 08:37:44;;;;;;;26.50;13.73;;;;;;;;;;5017917;28;20433;-85
2021/01/08 08:40:10;;;;;;;29.73;12.60;;;;;;;;;;5016413;28;20017;-85
2021/01/08 08:42:35;;;;;;;26.37;13.00;;;;;;;;;;5011308;28;20459;-85
2021/01/08 08:45:00;;;;;;;26.60;13.43;;;;;;;;;;5014565;28;20230;-86
2021/01/08 08:47:25;;;;;;;26.93;13.03;;;;;;;;;;5015073;28;20053;-85
2021/01/08 08:49:51;;;;;;;29.50;13.03;;;;;;;;;;5007278;28;20045;-85
2021/01/08 08:52:25;;;;;;;28.93;12.93;;;;;;;;;;4996985;28;20038;-85
2021/01/08 08:54:51;;;;;;;30.33;14.07;;;;;;;;;;4993612;28;20473;-85
2021/01/08 08:57:20;;;;;;;29.43;14.13;;;;;;;;;;4994926;28;20029;-85
2021/01/08 08:59:46;;;;;;;29.80;14.17;;;;;;;;;;5010496;28;20029;-84
2021/01/08 09:02:27;;;;;;;25.20;12.07;;;;;;;;;;4996060;28;20026;-85
2021/01/08 09:04:59;;;;;;;23.57;13.53;;;;;;;;;;5001429;28;20359;-87
2021/01/08 09:07:38;;;;;;;30.77;12.18;;;;;;;;;;5015164;28;20087;-86
2021/01/08 09:10:14;;;;;;;27.93;13.00;;;;;;;;;;5017078;28;20068;-86
2021/01/08 09:12:39;;;;;;;29.03;13.60;;;;;;;;;;5005648;28;20025;-85
2021/01/08 09:15:10;;;;;;;30.70;13.60;;;;;;;;;;5009353;28;20030;-85
2021/01/08 09:17:37;;;;;;;28.37;12.57;;;;;;;;;;5010040;28;20026;-86
2021/01/08 09:20:04;;;;;;;24.90;12.90;;;;;;;;;;5018241;28;20677;-86
2021/01/08 09:22:33;;;;;;;26.37;14.93;;;;;;;;;;5010450;28;20050;-83
2021/01/08 09:24:59;;;;;;;23.20;11.70;;;;;;;;;;5011681;28;20076;-84
2021/01/08 09:27:25;;;;;;;29.10;13.00;;;;;;;;;;5009323;28;20057;-85
2021/01/08 09:29:50;;;;;;;28.47;13.77;;;;;;;;;;5018817;28;20050;-84
2021/01/08 09:32:31;;;;;;;31.27;13.80;;;;;;;;;;5021179;28;20057;-84
2021/01/08 09:35:01;;;;;;;25.53;14.20;;;;;;;;;;5020757;28;20022;-84
2021/01/08 09:37:29;;;;;;;32.03;14.73;;;;;;;;;;5021189;28;20028;-84
2021/01/08 09:39:55;;;;;;;30.07;14.33;;;;;;;;;;5017965;28;20417;-83
2021/01/08 09:42:20;;;;;;;28.00;13.73;;;;;;;;;;5020074;28;20029;-94
2021/01/08 09:44:45;;;;;;;26.53;13.87;;;;;;;;;;5022423;28;20047;-90
2021/01/08 09:47:14;;;;;;;30.83;15.07;;;;;;;;;;5018907;28;20018;-90
2021/01/08 09:49:52;;;;;;;29.93;13.53;;;;;;;;;;5015374;28;20392;-90
2021/01/08 09:52:26;;;;;;;33.53;15.10;;;;;;;;;;5014579;28;20118;-91
2021/01/08 09:54:51;;;;;;;28.77;15.30;;;;;;;;;;5014577;28;20414;-90
2021/01/08 09:57:24;;;;;;;33.50;13.23;;;;;;;;;;5020927;28;20041;-90
2021/01/08 09:59:56;;;;;;;26.77;12.73;;;;;;;;;;5026419;28;20092;-90
2021/01/08 10:02:34;;;;;;;30.30;13.93;;;;;;;;;;5015800;28;20052;-91
2021/01/08 10:05:00;;;;;;;29.63;13.70;;;;;;;;;;5023641;28;20025;-91
2021/01/08 10:07:25;;;;;;;36.40;15.37;;;;;;;;;;5018761;28;20053;-91
2021/01/08 10:09:51;;;;;;;27.97;15.17;;;;;;;;;;5013863;28;20110;-90
2021/01/08 10:12:17;;;;;;;25.23;13.00;;;;;;;;;;5013945;28;20094;-91
2021/01/08 10:14:43;;;;;;;26.90;14.00;;;;;;;;;;5013671;28;20017;-92
2021/01/08 10:17:08;;;;;;;26.80;13.40;;;;;;;;;;5014919;28;20441;-92
2021/01/08 10:19:34;;;;;;;31.10;14.37;;;;;;;;;;5010802;28;20026;-93
2021/01/08 10:22:03;;;;;;;27.93;14.07;;;;;;;;;;5015632;28;20029;-91
2021/01/08 10:24:28;;;;;;;27.67;13.67;;;;;;;;;;5009117;28;20421;-91
2021/01/08 10:26:53;;;;;;;30.67;14.13;;;;;;;;;;5007908;28;20036;-91
2021/01/08 10:29:18;;;;;;;29.07;13.93;;;;;;;;;;5013492;28;20081;-90
2021/01/08 10:31:43;;;;;;;30.80;13.90;;;;;;;;;;5014096;28;20021;-91
2021/01/08 10:34:09;;;;;;;32.83;13.10;;;;;;;;;;5014111;28;20018;-92
2021/01/08 10:36:35;;;;;;;30.77;16.10;;;;;;;;;;5017790;28;20016;-92
2021/01/08 10:39:00;;;;;;;31.37;16.47;;;;;;;;;;5005025;28;20025;-90
2021/01/08 10:41:25;;;;;;;32.23;14.37;;;;;;;;;;5011173;28;20025;-91
2021/01/08 10:43:50;;;;;;;35.00;15.03;;;;;;;;;;5016697;28;20736;-92
2021/01/08 10:46:16;;;;;;;29.87;13.57;;;;;;;;;;5007535;28;20117;-91
2021/01/08 10:48:41;;;;;;;31.17;14.73;;;;;;;;;;5017957;28;20025;-91
2021/01/08 10:51:06;;;;;;;31.83;15.17;;;;;;;;;;5027503;28;20044;-91
2021/01/08 10:53:32;;;;;;;26.17;13.87;;;;;;;;;;4997072;28;841790;-91
2021/01/08 10:55:57;;;;;;;29.73;15.27;;;;;;;;;;5011177;28;20026;-94
2021/01/08 10:58:22;;;;;;;32.03;15.47;;;;;;;;;;5020182;28;20044;-92
2021/01/08 11:00:47;;;;;;;29.70;15.33;;;;;;;;;;5016470;28;20021;-92
2021/01/08 11:03:13;;;;;;;33.33;14.60;;;;;;;;;;5012424;28;20072;-90
2021/01/08 11:05:39;;;;;;;36.00;15.10;;;;;;;;;;5010197;28;20026;-91
2021/01/08 11:08:04;;;;;;;31.63;15.53;;;;;;;;;;5013940;28;20102;-90
2021/01/08 11:10:30;;;;;;;29.53;15.57;;;;;;;;;;5014567;28;20048;-90
2021/01/08 11:12:55;;;;;;;30.17;15.43;;;;;;;;;;5010626;28;20033;-91
2021/01/08 11:15:22;;;;;;;31.43;15.40;;;;;;;;;;5010465;28;20022;-92
2021/01/08 11:17:47;;;;;;;29.47;15.60;;;;;;;;;;5006874;28;20018;-91
2021/01/08 11:20:13;;;;;;;30.77;15.13;;;;;;;;;;5017891;28;20018;-89
2021/01/08 11:22:38;;;;;;;34.17;15.83;;;;;;;;;;5013445;28;20017;-90
2021/01/08 11:25:04;;;;;;;35.93;16.00;;;;;;;;;;5000565;28;20477;-91
2021/01/08 11:27:29;;;;;;;30.10;14.57;;;;;;;;;;5018704;28;20045;-91
2021/01/08 11:29:54;;;;;;;31.40;15.70;;;;;;;;;;5010859;28;20115;-93
2021/01/08 11:32:19;;;;;;;30.50;14.37;;;;;;;;;;5005226;28;20030;-92
2021/01/08 11:34:45;;;;;;;33.37;15.73;;;;;;;;;;5012048;28;20994;-90
2021/01/08 11:37:10;;;;;;;27.33;13.83;;;;;;;;;;5017964;28;20060;-91
2021/01/08 11:39:35;;;;;;;32.63;15.47;;;;;;;;;;5010798;28;20429;-92
2021/01/08 11:42:00;;;;;;;33.67;15.37;;;;;;;;;;5021978;28;20030;-93
2021/01/08 11:44:26;;;;;;;28.57;14.90;;;;;;;;;;5021484;28;20794;-93
2021/01/08 11:46:51;;;;;;;31.27;15.27;;;;;;;;;;5013871;28;20101;-92
2021/01/08 11:49:17;;;;;;;28.87;15.23;;;;;;;;;;5017131;28;20448;-89
2021/01/08 11:51:42;;;;;;;36.67;16.13;;;;;;;;;;5005261;28;20025;-83
2021/01/08 11:54:08;;;;;;;32.70;16.00;;;;;;;;;;5000809;28;20018;-84
2021/01/08 11:56:33;;;;;;;31.20;15.20;;;;;;;;;;5011021;28;20014;-84
2021/01/08 11:58:58;;;;;;;33.33;15.80;;;;;;;;;;5012343;28;20036;-84
2021/01/08 12:01:27;;;;;;;32.87;16.13;;;;;;;;;;5014043;28;20396;-84
2021/01/08 12:03:53;;;;;;;35.13;16.10;;;;;;;;;;5009987;28;20036;-84
2021/01/08 12:06:23;;;;;;;32.40;15.93;;;;;;;;;;5010939;28;20113;-84
2021/01/08 12:08:48;;;;;;;35.43;16.17;;;;;;;;;;5015101;28;20057;-84
2021/01/08 12:11:14;;;;;;;33.07;15.43;;;;;;;;;;5015208;28;20452;-84
2021/01/08 12:13:40;;;;;;;34.80;16.13;;;;;;;;;;5014029;28;20465;-84
2021/01/08 12:16:05;;;;;;;31.33;16.47;;;;;;;;;;5009999;28;20021;-89
2021/01/08 12:18:31;;;;;;;36.87;16.67;;;;;;;;;;5011022;28;20018;-90
2021/01/08 12:20:56;;;;;;;32.87;16.63;;;;;;;;;;5007810;28;20373;-90
2021/01/08 12:23:21;;;;;;;32.17;16.67;;;;;;;;;;5015877;28;20479;-90
2021/01/08 12:25:46;;;;;;;33.97;17.27;;;;;;;;;;5011959;28;20052;-90
2021/01/08 12:28:12;;;;;;;36.57;18.97;;;;;;;;;;5009645;28;20033;-90
2021/01/08 12:30:37;;;;;;;42.43;22.10;;;;;;;;;;5020439;28;20018;-90
2021/01/08 12:33:03;;;;;;;45.23;21.00;;;;;;;;;;5003291;28;20022;-90
2021/01/08 12:35:29;;;;;;;35.90;17.73;;;;;;;;;;5016232;28;20028;-90
2021/01/08 12:37:55;;;;;;;66.27;30.83;;;;;;;;;;5020909;28;20045;-90
2021/01/08 12:40:21;;;;;;;35.63;17.80;;;;;;;;;;5018178;28;20021;-90
2021/01/08 12:42:47;;;;;;;46.70;19.87;;;;;;;;;;5005121;28;20034;-91
2021/01/08 12:45:13;;;;;;;38.00;18.67;;;;;;;;;;5013440;28;20171;-91
2021/01/08 12:47:38;;;;;;;35.83;17.40;;;;;;;;;;5007967;28;20120;-90
2021/01/08 12:50:04;;;;;;;43.27;19.13;;;;;;;;;;5010159;28;20423;-91
2021/01/08 12:52:30;;;;;;;38.00;17.67;;;;;;;;;;5027398;28;20467;-90
2021/01/08 12:54:55;;;;;;;41.03;19.17;;;;;;;;;;5015966;28;20411;-91
2021/01/08 12:57:20;;;;;;;34.90;17.93;;;;;;;;;;5008246;28;20417;-88
2021/01/08 12:59:45;;;;;;;38.13;18.03;;;;;;;;;;5009617;28;20021;-86
2021/01/08 13:02:10;;;;;;;34.97;18.80;;;;;;;;;;5006471;28;20290;-87
2021/01/08 13:04:36;;;;;;;35.90;18.37;;;;;;;;;;5016934;28;20018;-88
2021/01/08 13:07:01;;;;;;;39.43;18.53;;;;;;;;;;5015109;28;20037;-88
2021/01/08 13:09:26;;;;;;;35.07;18.23;;;;;;;;;;5010757;28;20117;-88
2021/01/08 13:11:51;;;;;;;38.93;18.63;;;;;;;;;;5009743;28;20029;-89
2021/01/08 13:14:17;;;;;;;32.57;17.90;;;;;;;;;;5017836;28;20036;-88
2021/01/08 13:16:42;;;;;;;38.43;18.97;;;;;;;;;;5011012;28;20450;-88
2021/01/08 13:19:07;;;;;;;32.80;18.13;;;;;;;;;;5006950;28;20016;-88
2021/01/08 13:21:32;;;;;;;36.10;18.67;;;;;;;;;;5010660;28;20072;-88
2021/01/08 13:23:57;;;;;;;37.50;18.67;;;;;;;;;;5005531;28;20026;-90
2021/01/08 13:26:23;;;;;;;32.47;16.17;;;;;;;;;;5009767;28;20029;-89
2021/01/08 13:28:49;;;;;;;32.13;17.10;;;;;;;;;;5006321;28;20491;-91
2021/01/08 13:31:19;;;;;;;35.47;16.90;;;;;;;;;;5018113;28;20412;-88
2021/01/08 13:33:44;;;;;;;38.37;21.33;;;;;;;;;;5018649;28;20049;-89
2021/01/08 13:36:09;;;;;;;36.37;18.40;;;;;;;;;;5014681;28;20373;-89
2021/01/08 13:38:34;;;;;;;38.30;17.70;;;;;;;;;;5004425;28;20045;-90
2021/01/08 13:41:00;;;;;;;34.67;17.70;;;;;;;;;;5008682;28;20059;-84
2021/01/08 13:43:25;;;;;;;36.83;17.57;;;;;;;;;;5003311;28;20164;-84
2021/01/08 13:45:50;;;;;;;32.60;17.20;;;;;;;;;;5003453;28;20021;-83
2021/01/08 13:48:15;;;;;;;39.77;18.50;;;;;;;;;;5005062;28;20491;-84
2021/01/08 13:50:40;;;;;;;32.93;17.83;;;;;;;;;;5006133;28;20025;-83
2021/01/08 13:53:07;;;;;;;36.43;18.53;;;;;;;;;;5005858;28;20121;-83
2021/01/08 13:55:32;;;;;;;34.93;18.07;;;;;;;;;;5011900;28;20769;-83
2021/01/08 13:57:57;;;;;;;38.47;18.57;;;;;;;;;;5007736;28;20113;-84
2021/01/08 14:00:22;;;;;;;34.63;17.37;;;;;;;;;;5015329;28;20055;-83
2021/01/08 14:02:47;;;;;;;40.33;18.27;;;;;;;;;;5009281;28;20033;-83
2021/01/08 14:05:13;;;;;;;34.67;19.30;;;;;;;;;;4999095;28;20053;-83
2021/01/08 14:07:38;;;;;;;33.73;18.47;;;;;;;;;;5009333;28;20026;-83
2021/01/08 14:10:04;;;;;;;37.30;19.20;;;;;;;;;;5013143;28;20116;-93
2021/01/08 14:12:31;;;;;;;35.87;19.70;;;;;;;;;;5014387;28;20038;-93
2021/01/08 14:14:56;;;;;;;37.43;17.13;;;;;;;;;;5018441;28;20472;-91
2021/01/08 14:17:21;;;;;;;33.67;17.80;;;;;;;;;;5010684;28;20046;-92